Time,TemperatureF,DewpointF,PressureIn,WindDirection,WindDirectionDegrees,WindSpeedMPH,WindSpeedGustMPH,Humidity,HourlyPrecipIn,Conditions,Clouds,dailyrainin,SoftwareType,DateUTC
2013-01-01 00:00:00,9.5,4.3,30.48,NNE,29,0.0,0.0,79,0.00,,SKC,0.00,VWS V12.07,2013-01-01 07:00:00,
2013-01-01 00:30:00,10.0,5.3,30.49,NNE,29,0.0,0.0,81,0.00,,SKC,0.00,VWS V12.07,2013-01-01 07:30:00,
2013-01-01 01:00:00,11.7,7.3,30.48,NNE,29,0.0,0.0,82,0.00,,SKC,0.00,VWS V12.07,2013-01-01 08:00:00,
2013-01-01 01:30:00,10.7,5.5,30.50,NNE,29,0.0,0.0,79,0.00,,SKC,0.00,VWS V12.07,2013-01-01 08:30:00,
2013-01-01 02:00:00,9.2,3.5,30.51,NNE,29,0.0,0.0,77,0.00,,SKC,0.00,VWS V12.07,2013-01-01 09:00:00,
2013-01-01 02:30:00,8.4,2.4,30.52,NNW,336,0.0,0.0,76,0.00,,SKC,0.00,VWS V12.07,2013-01-01 09:30:00,
2013-01-01 03:00:00,8.8,2.8,30.53,NNW,336,0.0,0.0,76,0.00,,SKC,0.00,VWS V12.07,2013-01-01 10:00:00,
2013-01-01 03:30:00,8.4,2.4,30.55,NNW,336,0.0,0.0,76,0.00,,SKC,0.00,VWS V12.07,2013-01-01 10:30:00,
2013-01-01 04:00:00,8.8,3.1,30.54,NNW,336,0.0,0.0,77,0.00,,SKC,0.00,VWS V12.07,2013-01-01 11:00:00,
2013-01-01 04:30:00,9.5,3.8,30.56,NNW,336,0.0,0.0,77,0.00,,SKC,0.00,VWS V12.07,2013-01-01 11:30:00,
2013-01-01 05:00:00,9.7,4.0,30.53,NNW,336,0.0,0.0,77,0.00,,SKC,0.00,VWS V12.07,2013-01-01 12:00:00,
2013-01-01 05:30:00,9.5,3.5,30.55,NNW,336,0.0,0.0,76,0.00,,SKC,0.00,VWS V12.07,2013-01-01 12:30:00,
2013-01-01 06:00:00,9.5,2.9,30.55,NNW,336,0.0,0.0,74,0.00,,SKC,0.00,VWS V12.07,2013-01-01 13:00:00,
2013-01-01 06:30:00,7.2,1.8,30.60,NNW,336,0.0,0.0,78,0.00,,SKC,0.00,VWS V12.07,2013-01-01 13:30:00,
2013-01-01 07:00:00,9.2,4.0,30.59,NNW,336,0.0,0.0,79,0.00,,SKC,0.00,VWS V12.07,2013-01-01 14:00:00,
2013-01-01 07:30:00,9.2,3.7,30.59,NNW,336,0.0,0.0,78,0.00,,SKC,0.00,VWS V12.07,2013-01-01 14:30:00,
2013-01-01 08:00:00,8.6,3.4,30.61,NNW,336,0.0,0.0,79,0.00,,SKC,0.00,VWS V12.07,2013-01-01 15:00:00,
2013-01-01 08:30:00,8.8,3.4,30.63,NNW,336,0.0,0.0,78,0.00,,SKC,0.00,VWS V12.07,2013-01-01 15:30:00,
2013-01-01 09:00:00,9.0,3.5,30.64,NNW,336,0.0,0.0,78,0.00,,SKC,0.00,VWS V12.07,2013-01-01 16:00:00,
2013-01-01 09:30:00,8.8,3.1,30.66,NNW,336,0.0,0.0,77,0.00,,SKC,0.00,VWS V12.07,2013-01-01 16:30:00,
2013-01-01 10:00:00,9.2,3.7,30.67,NNW,336,0.0,0.0,78,0.00,,SKC,0.00,VWS V12.07,2013-01-01 17:00:00,
2013-01-01 10:30:00,11.9,6.9,30.66,NNW,336,0.0,0.0,80,0.00,,SKC,0.00,VWS V12.07,2013-01-01 17:30:00,
2013-01-01 11:01:00,14.1,7.9,30.64,NNW,336,0.0,0.0,76,0.00,,SKC,0.00,VWS V12.07,2013-01-01 18:01:00,
2013-01-01 11:30:00,16.2,8.8,30.62,North,355,0.0,0.0,72,0.00,,SKC,0.00,VWS V12.07,2013-01-01 18:30:00,
2013-01-01 12:00:00,13.8,7.4,30.63,North,355,0.0,0.0,75,0.00,,SKC,0.00,VWS V12.07,2013-01-01 19:00:00,
2013-01-01 12:30:00,17.7,9.3,30.59,North,355,0.0,1.0,69,0.00,,SKC,0.00,VWS V12.07,2013-01-01 19:30:00,
2013-01-01 13:00:00,15.9,7.9,30.58,NE,40,0.0,1.0,70,0.00,,SKC,0.00,VWS V12.07,2013-01-01 20:00:00,
2013-01-01 13:30:00,17.5,8.8,30.59,NE,40,0.0,0.0,68,0.00,,SKC,0.00,VWS V12.07,2013-01-01 20:30:00,
2013-01-01 14:01:00,16.7,8.0,30.60,NE,55,0.0,1.0,68,0.00,,SKC,0.00,VWS V12.07,2013-01-01 21:01:00,
2013-01-01 14:30:00,16.5,8.4,30.63,NE,55,0.0,0.0,70,0.00,,SKC,0.00,VWS V12.07,2013-01-01 21:30:00,
2013-01-01 15:00:00,18.9,9.4,30.60,NE,55,0.0,0.0,66,0.00,,SKC,0.00,VWS V12.07,2013-01-01 22:00:00,
2013-01-01 15:30:00,17.3,8.6,30.62,NE,55,0.0,0.0,68,0.00,,SKC,0.00,VWS V12.07,2013-01-01 22:30:00,
2013-01-01 16:00:00,17.3,8.9,30.61,NE,55,0.0,0.0,69,0.00,,SKC,0.00,VWS V12.07,2013-01-01 23:00:00,
2013-01-01 16:30:00,15.6,7.9,30.62,NE,55,0.0,0.0,71,0.00,,SKC,0.00,VWS V12.07,2013-01-01 23:30:00,
2013-01-01 17:00:00,14.0,6.3,30.63,NE,55,0.0,0.0,71,0.00,,SKC,0.00,VWS V12.07,2013-01-02 00:00:00,
2013-01-01 17:30:00,12.6,4.4,30.62,NE,55,0.0,0.0,69,0.00,,SKC,0.00,VWS V12.07,2013-01-02 00:30:00,
2013-01-01 18:00:00,11.2,3.7,30.64,NE,55,0.0,0.0,71,0.00,,SKC,0.00,VWS V12.07,2013-01-02 01:00:00,
2013-01-01 18:30:00,10.5,3.6,30.64,NE,55,0.0,0.0,73,0.00,,SKC,0.00,VWS V12.07,2013-01-02 01:30:00,
2013-01-01 19:00:00,9.7,2.8,30.64,NE,55,0.0,0.0,73,0.00,,SKC,0.00,VWS V12.07,2013-01-02 02:00:00,
2013-01-01 19:30:00,9.3,3.8,30.67,NE,55,0.0,0.0,78,0.00,,SKC,0.00,VWS V12.07,2013-01-02 02:30:00,
2013-01-01 20:00:00,10.7,5.2,30.66,NE,55,0.0,0.0,78,0.00,,SKC,0.00,VWS V12.07,2013-01-02 03:00:00,
2013-01-01 20:30:00,10.0,4.2,30.67,NE,55,0.0,0.0,77,0.00,,SKC,0.00,VWS V12.07,2013-01-02 03:30:00,
2013-01-01 21:00:00,8.3,2.3,30.70,NE,55,0.0,0.0,76,0.00,,SKC,0.00,VWS V12.07,2013-01-02 04:00:00,
2013-01-01 21:30:00,8.8,3.6,30.70,NE,55,0.0,0.0,79,0.00,,SKC,0.00,VWS V12.07,2013-01-02 04:30:00,
2013-01-01 22:01:00,8.4,3.2,30.68,NE,55,0.0,0.0,79,0.00,,SKC,0.00,VWS V12.07,2013-01-02 05:01:00,
2013-01-01 22:30:00,9.9,4.4,30.64,NE,55,0.0,0.0,78,0.00,,SKC,0.00,VWS V12.07,2013-01-02 05:30:00,
2013-01-01 23:00:00,7.7,2.3,30.67,NE,55,0.0,0.0,78,0.00,,SKC,0.00,VWS V12.07,2013-01-02 06:00:00,
2013-01-01 23:30:00,8.6,3.4,30.67,NE,55,0.0,0.0,79,0.00,,SKC,0.00,VWS V12.07,2013-01-02 06:30:00,